sensor_id;sensor_type;location;lat;lon;timestamp;pressure;altitude;pressure_sealevel;temperature;humidity
48352;BME280;34163;49.314;6.752;2023-12-04T00:00:13;99622.66;;;7.83;100.00
48352;BME280;34163;49.314;6.752;2023-12-04T00:02:40;99612.06;;;7.85;100.00
48352;BME280;34163;49.314;6.752;2023-12-04T00:05:05;99600.66;;;7.84;100.00
48352;BME280;34163;49.314;6.752;2023-12-04T00:07:31;99594.41;;;7.87;100.00
48352;BME280;34163;49.314;6.752;2023-12-04T00:09:56;99586.50;;;7.87;100.00
48352;BME280;34163;49.314;6.752;2023-12-04T00:12:21;99597.00;;;7.88;100.00
48352;BME280;34163;49.314;6.752;2023-12-04T00:14:46;99587.31;;;7.89;100.00
48352;BME280;34163;49.314;6.752;2023-12-04T00:17:12;99584.66;;;7.89;100.00
48352;BME280;34163;49.314;6.752;2023-12-04T00:19:37;99581.13;;;7.90;100.00
48352;BME280;34163;49.314;6.752;2023-12-04T00:22:02;99574.06;;;7.90;100.00
48352;BME280;34163;49.314;6.752;2023-12-04T00:24:27;99575.00;;;7.62;100.00
48352;BME280;34163;49.314;6.752;2023-12-04T00:26:53;99585.38;;;6.27;100.00
48352;BME280;34163;49.314;6.752;2023-12-04T00:29:18;99587.69;;;5.72;100.00
48352;BME280;34163;49.314;6.752;2023-12-04T00:31:43;99576.78;;;5.53;100.00
48352;BME280;34163;49.314;6.752;2023-12-04T00:34:08;99572.16;;;5.28;100.00
48352;BME280;34163;49.314;6.752;2023-12-04T00:36:34;99570.72;;;5.15;100.00
48352;BME280;34163;49.314;6.752;2023-12-04T00:38:59;99564.88;;;5.02;100.00
48352;BME280;34163;49.314;6.752;2023-12-04T00:41:24;99571.16;;;4.97;100.00
48352;BME280;34163;49.314;6.752;2023-12-04T00:43:49;99557.44;;;4.85;100.00
48352;BME280;34163;49.314;6.752;2023-12-04T00:46:17;99556.72;;;4.79;100.00
48352;BME280;34163;49.314;6.752;2023-12-04T00:48:42;99549.06;;;4.68;100.00
48352;BME280;34163;49.314;6.752;2023-12-04T00:51:07;99543.97;;;4.62;100.00
48352;BME280;34163;49.314;6.752;2023-12-04T00:53:33;99534.50;;;4.53;100.00
48352;BME280;34163;49.314;6.752;2023-12-04T00:55:58;99542.28;;;4.58;100.00
48352;BME280;34163;49.314;6.752;2023-12-04T00:58:23;99531.22;;;5.54;100.00
48352;BME280;34163;49.314;6.752;2023-12-04T01:00:48;99522.66;;;6.12;100.00
48352;BME280;34163;49.314;6.752;2023-12-04T01:03:16;99523.56;;;6.41;100.00
48352;BME280;34163;49.314;6.752;2023-12-04T01:05:42;99530.00;;;6.60;100.00
48352;BME280;34163;49.314;6.752;2023-12-04T01:08:07;99527.03;;;6.71;100.00
48352;BME280;34163;49.314;6.752;2023-12-04T01:10:32;99524.03;;;6.83;100.00
48352;BME280;34163;49.314;6.752;2023-12-04T01:12:58;99529.06;;;6.91;100.00
48352;BME280;34163;49.314;6.752;2023-12-04T01:15:23;99518.28;;;6.97;100.00
48352;BME280;34163;49.314;6.752;2023-12-04T01:17:48;99519.03;;;7.02;100.00
48352;BME280;34163;49.314;6.752;2023-12-04T01:20:14;99521.47;;;7.08;100.00
48352;BME280;34163;49.314;6.752;2023-12-04T01:22:39;99511.69;;;7.12;100.00
48352;BME280;34163;49.314;6.752;2023-12-04T08:56:51;99080.63;;;7.30;100.00
48352;BME280;34163;49.314;6.752;2023-12-04T08:59:16;99074.31;;;7.34;100.00
48352;BME280;34163;49.314;6.752;2023-12-04T09:01:42;99076.00;;;7.35;100.00
48352;BME280;34163;49.314;6.752;2023-12-04T09:04:07;99075.03;;;7.38;100.00
48352;BME280;34163;49.314;6.752;2023-12-04T09:06:33;99074.97;;;7.39;100.00
48352;BME280;34163;49.314;6.752;2023-12-04T09:08:58;99076.63;;;7.42;100.00
48352;BME280;34163;49.314;6.752;2023-12-04T09:11:23;99073.06;;;7.43;100.00
48352;BME280;34163;49.314;6.752;2023-12-04T09:13:48;99057.13;;;7.46;100.00
48352;BME280;34163;49.314;6.752;2023-12-04T09:16:14;99055.34;;;7.46;100.00
48352;BME280;34163;49.314;6.752;2023-12-04T09:18:39;99043.88;;;7.48;100.00
48352;BME280;34163;49.314;6.752;2023-12-04T09:21:04;99049.88;;;7.51;100.00
48352;BME280;34163;49.314;6.752;2023-12-04T09:23:30;99040.13;;;7.53;100.00
48352;BME280;34163;49.314;6.752;2023-12-04T09:25:55;99040.91;;;7.55;100.00
48352;BME280;34163;49.314;6.752;2023-12-04T09:28:21;99036.50;;;7.56;100.00
48352;BME280;34163;49.314;6.752;2023-12-04T09:30:46;99036.44;;;7.57;100.00
48352;BME280;34163;49.314;6.752;2023-12-04T09:33:11;99032.03;;;7.58;100.00
48352;BME280;34163;49.314;6.752;2023-12-04T09:35:36;99025.81;;;7.59;100.00
48352;BME280;34163;49.314;6.752;2023-12-04T09:38:02;99027.56;;;7.60;100.00
48352;BME280;34163;49.314;6.752;2023-12-04T09:40:27;99023.97;;;7.61;100.00
48352;BME280;34163;49.314;6.752;2023-12-04T09:42:52;99016.88;;;7.63;100.00
48352;BME280;34163;49.314;6.752;2023-12-04T09:45:18;99020.34;;;7.63;100.00
48352;BME280;34163;49.314;6.752;2023-12-04T09:47:45;99022.88;;;7.67;100.00
48352;BME280;34163;49.314;6.752;2023-12-04T09:50:11;99018.44;;;7.67;100.00
48352;BME280;34163;49.314;6.752;2023-12-04T09:52:36;99015.72;;;7.69;100.00
48352;BME280;34163;49.314;6.752;2023-12-04T09:55:02;99006.00;;;7.71;100.00
48352;BME280;34163;49.314;6.752;2023-12-04T09:57:28;98993.66;;;7.71;100.00
48352;BME280;34163;49.314;6.752;2023-12-04T09:59:56;98998.81;;;7.74;100.00
48352;BME280;34163;49.314;6.752;2023-12-04T10:02:23;98986.53;;;7.73;100.00
48352;BME280;34163;49.314;6.752;2023-12-04T10:04:49;98985.56;;;7.76;100.00
48352;BME280;34163;49.314;6.752;2023-12-04T10:07:14;98975.84;;;7.76;100.00
48352;BME280;34163;49.314;6.752;2023-12-04T10:09:41;98969.72;;;7.76;100.00
48352;BME280;34163;49.314;6.752;2023-12-04T10:12:06;98967.03;;;7.77;100.00
48352;BME280;34163;49.314;6.752;2023-12-04T10:14:32;98954.63;;;7.79;100.00
48352;BME280;34163;49.314;6.752;2023-12-04T10:16:57;98958.91;;;7.82;100.00
48352;BME280;34163;49.314;6.752;2023-12-04T10:19:23;98956.34;;;7.80;100.00
48352;BME280;34163;49.314;6.752;2023-12-04T10:21:51;98947.47;;;7.81;100.00
48352;BME280;34163;49.314;6.752;2023-12-04T10:26:53;98941.22;;;7.84;100.00
48352;BME280;34163;49.314;6.752;2023-12-04T10:29:19;98928.03;;;7.84;100.00
48352;BME280;34163;49.314;6.752;2023-12-04T10:31:44;98926.19;;;7.86;100.00
48352;BME280;34163;49.314;6.752;2023-12-04T10:34:09;98927.97;;;7.86;100.00
48352;BME280;34163;49.314;6.752;2023-12-04T10:36:35;98913.88;;;7.87;100.00
48352;BME280;34163;49.314;6.752;2023-12-04T10:39:01;98901.53;;;7.87;100.00
48352;BME280;34163;49.314;6.752;2023-12-04T10:41:29;98901.47;;;7.89;100.00
48352;BME280;34163;49.314;6.752;2023-12-04T10:43:55;98895.28;;;7.90;100.00
48352;BME280;34163;49.314;6.752;2023-12-04T10:46:21;98898.56;;;7.55;100.00
48352;BME280;34163;49.314;6.752;2023-12-04T10:48:46;98894.97;;;6.31;100.00
48352;BME280;34163;49.314;6.752;2023-12-04T10:51:12;98891.97;;;5.71;100.00
48352;BME280;34163;49.314;6.752;2023-12-04T10:53:38;98890.91;;;5.52;100.00
48352;BME280;34163;49.314;6.752;2023-12-04T10:56:06;98886.28;;;5.35;100.00
48352;BME280;34163;49.314;6.752;2023-12-04T10:58:32;98877.00;;;5.24;100.00
48352;BME280;34163;49.314;6.752;2023-12-04T11:00:59;98880.16;;;5.11;100.00
48352;BME280;34163;49.314;6.752;2023-12-04T11:03:34;98871.75;;;4.99;100.00
48352;BME280;34163;49.314;6.752;2023-12-04T11:06:01;98864.16;;;4.91;100.00
48352;BME280;34163;49.314;6.752;2023-12-04T11:08:28;98862.84;;;4.78;100.00
48352;BME280;34163;49.314;6.752;2023-12-04T11:13:34;98856.97;;;4.71;100.00
48352;BME280;34163;49.314;6.752;2023-12-04T11:16:01;98856.31;;;4.65;100.00
48352;BME280;34163;49.314;6.752;2023-12-04T11:18:27;98848.75;;;4.55;100.00
48352;BME280;34163;49.314;6.752;2023-12-04T11:20:59;98841.06;;;4.49;100.00
48352;BME280;34163;49.314;6.752;2023-12-04T11:23:27;98837.47;;;4.53;100.00
48352;BME280;34163;49.314;6.752;2023-12-04T11:25:53;98832.59;;;5.42;100.00
48352;BME280;34163;49.314;6.752;2023-12-04T11:28:19;98825.16;;;6.00;100.00
48352;BME280;34163;49.314;6.752;2023-12-04T11:30:44;98815.13;;;6.32;100.00
48352;BME280;34163;49.314;6.752;2023-12-04T11:33:10;98809.06;;;6.51;100.00
48352;BME280;34163;49.314;6.752;2023-12-04T11:35:37;98804.03;;;6.67;100.00
48352;BME280;34163;49.314;6.752;2023-12-04T11:38:04;98800.88;;;6.79;100.00
48352;BME280;34163;49.314;6.752;2023-12-04T11:40:30;98799.56;;;6.89;100.00
48352;BME280;34163;49.314;6.752;2023-12-04T11:42:55;98788.78;;;6.96;100.00
48352;BME280;34163;49.314;6.752;2023-12-04T11:45:20;98797.25;;;7.02;100.00
48352;BME280;34163;49.314;6.752;2023-12-04T11:47:54;98782.09;;;7.07;100.00
48352;BME280;34163;49.314;6.752;2023-12-04T11:50:19;98782.75;;;7.13;100.00
48352;BME280;34163;49.314;6.752;2023-12-04T11:52:44;98778.97;;;7.18;100.00
48352;BME280;34163;49.314;6.752;2023-12-04T11:55:10;98785.75;;;7.24;100.00
48352;BME280;34163;49.314;6.752;2023-12-04T11:57:36;98779.41;;;7.28;100.00
48352;BME280;34163;49.314;6.752;2023-12-04T12:02:40;98772.16;;;7.33;100.00
48352;BME280;34163;49.314;6.752;2023-12-04T12:05:06;98758.84;;;7.36;100.00
48352;BME280;34163;49.314;6.752;2023-12-04T12:07:32;98761.34;;;7.39;100.00
48352;BME280;34163;49.314;6.752;2023-12-04T12:09:58;98757.63;;;7.43;100.00
48352;BME280;34163;49.314;6.752;2023-12-04T12:12:24;98753.22;;;7.44;100.00
48352;BME280;34163;49.314;6.752;2023-12-04T12:14:50;98752.06;;;7.50;100.00
48352;BME280;34163;49.314;6.752;2023-12-04T12:17:15;98747.66;;;7.50;100.00
48352;BME280;34163;49.314;6.752;2023-12-04T12:19:41;98746.66;;;7.53;100.00
48352;BME280;34163;49.314;6.752;2023-12-04T12:22:06;98743.94;;;7.54;100.00
48352;BME280;34163;49.314;6.752;2023-12-04T12:24:32;98729.84;;;7.55;100.00
48352;BME280;34163;49.314;6.752;2023-12-04T12:26:57;98732.41;;;7.57;100.00
48352;BME280;34163;49.314;6.752;2023-12-04T12:29:23;98719.94;;;7.60;100.00
48352;BME280;34163;49.314;6.752;2023-12-04T12:31:48;98714.59;;;7.62;100.00
48352;BME280;34163;49.314;6.752;2023-12-04T12:34:14;98703.91;;;7.65;100.00
48352;BME280;34163;49.314;6.752;2023-12-04T12:36:40;98701.19;;;7.67;100.00
48352;BME280;34163;49.314;6.752;2023-12-04T12:39:05;98693.19;;;7.68;100.00
48352;BME280;34163;49.314;6.752;2023-12-04T12:41:33;98684.38;;;7.69;100.00
48352;BME280;34163;49.314;6.752;2023-12-04T12:43:58;98682.25;;;8.12;100.00
48352;BME280;34163;49.314;6.752;2023-12-04T12:46:25;98667.31;;;7.40;100.00
48352;BME280;34163;49.314;6.752;2023-12-04T12:48:51;98673.22;;;6.07;100.00
48352;BME280;34163;49.314;6.752;2023-12-04T12:51:16;98670.94;;;5.55;100.00
48352;BME280;34163;49.314;6.752;2023-12-04T12:53:43;98669.09;;;5.35;100.00
48352;BME280;34163;49.314;6.752;2023-12-04T12:56:08;98660.06;;;5.20;100.00
48352;BME280;34163;49.314;6.752;2023-12-04T12:58:34;98644.16;;;5.01;100.00
48352;BME280;34163;49.314;6.752;2023-12-04T13:01:00;98644.56;;;4.90;100.00
48352;BME280;34163;49.314;6.752;2023-12-04T13:03:25;98630.06;;;4.80;100.00
48352;BME280;34163;49.314;6.752;2023-12-04T13:05:50;98621.50;;;4.75;100.00
48352;BME280;34163;49.314;6.752;2023-12-04T13:08:16;98614.13;;;4.63;100.00
48352;BME280;34163;49.314;6.752;2023-12-04T13:10:41;98618.78;;;4.54;100.00
48352;BME280;34163;49.314;6.752;2023-12-04T13:13:13;98617.91;;;4.54;100.00
48352;BME280;34163;49.314;6.752;2023-12-04T13:15:38;98604.25;;;4.46;100.00
48352;BME280;34163;49.314;6.752;2023-12-04T13:18:03;98603.44;;;4.44;100.00
48352;BME280;34163;49.314;6.752;2023-12-04T13:20:29;98599.97;;;5.13;100.00
48352;BME280;34163;49.314;6.752;2023-12-04T13:22:54;98584.03;;;5.80;100.00
48352;BME280;34163;49.314;6.752;2023-12-04T13:25:19;98578.88;;;6.20;100.00
48352;BME280;34163;49.314;6.752;2023-12-04T13:27:46;98575.03;;;6.48;100.00
48352;BME280;34163;49.314;6.752;2023-12-04T13:30:11;98557.72;;;6.61;100.00
48352;BME280;34163;49.314;6.752;2023-12-04T13:32:36;98563.22;;;6.76;100.00
48352;BME280;34163;49.314;6.752;2023-12-04T13:35:02;98548.66;;;6.86;100.00
48352;BME280;34163;49.314;6.752;2023-12-04T13:37:29;98544.84;;;6.93;100.00
48352;BME280;34163;49.314;6.752;2023-12-04T13:39:55;98540.03;;;7.01;100.00
48352;BME280;34163;49.314;6.752;2023-12-04T13:42:26;98540.66;;;7.06;100.00
48352;BME280;34163;49.314;6.752;2023-12-04T13:45:10;98533.31;;;7.13;100.00
48352;BME280;34163;49.314;6.752;2023-12-04T13:47:35;98533.91;;;7.20;100.00
48352;BME280;34163;49.314;6.752;2023-12-04T13:50:01;98527.53;;;7.24;100.00
48352;BME280;34163;49.314;6.752;2023-12-04T13:52:26;98524.75;;;7.27;100.00
48352;BME280;34163;49.314;6.752;2023-12-04T13:54:55;98517.47;;;7.32;100.00
48352;BME280;34163;49.314;6.752;2023-12-04T13:57:22;98514.69;;;7.35;100.00
48352;BME280;34163;49.314;6.752;2023-12-04T13:59:53;98510.22;;;7.37;100.00
48352;BME280;34163;49.314;6.752;2023-12-04T14:02:18;98514.38;;;7.41;100.00
48352;BME280;34163;49.314;6.752;2023-12-04T14:04:43;98516.84;;;7.44;100.00
48352;BME280;34163;49.314;6.752;2023-12-04T14:07:08;98507.88;;;7.49;100.00
48352;BME280;34163;49.314;6.752;2023-12-04T14:09:35;98504.28;;;7.50;100.00
48352;BME280;34163;49.314;6.752;2023-12-04T14:12:00;98503.28;;;7.52;100.00
48352;BME280;34163;49.314;6.752;2023-12-04T14:14:25;98495.25;;;7.55;100.00
48352;BME280;34163;49.314;6.752;2023-12-04T14:16:51;98491.59;;;7.58;100.00
48352;BME280;34163;49.314;6.752;2023-12-04T14:19:17;98489.72;;;7.60;100.00
48352;BME280;34163;49.314;6.752;2023-12-04T14:21:46;98483.50;;;7.61;100.00
48352;BME280;34163;49.314;6.752;2023-12-04T14:24:13;98491.25;;;7.64;100.00
48352;BME280;34163;49.314;6.752;2023-12-04T14:26:38;98492.91;;;7.67;100.00
48352;BME280;34163;49.314;6.752;2023-12-04T14:29:03;98482.19;;;7.70;100.00
48352;BME280;34163;49.314;6.752;2023-12-04T14:31:28;98470.72;;;7.71;100.00
48352;BME280;34163;49.314;6.752;2023-12-04T14:33:55;98473.28;;;7.72;100.00
48352;BME280;34163;49.314;6.752;2023-12-04T14:36:20;98477.69;;;7.72;100.00
48352;BME280;34163;49.314;6.752;2023-12-04T14:38:45;98467.81;;;7.75;100.00
48352;BME280;34163;49.314;6.752;2023-12-04T14:41:10;98469.53;;;7.76;100.00
48352;BME280;34163;49.314;6.752;2023-12-04T14:43:36;98467.66;;;7.78;100.00
48352;BME280;34163;49.314;6.752;2023-12-04T14:46:02;98467.59;;;7.80;100.00
48352;BME280;34163;49.314;6.752;2023-12-04T14:48:28;98473.66;;;7.82;100.00
48352;BME280;34163;49.314;6.752;2023-12-04T14:50:53;98459.50;;;7.83;100.00
48352;BME280;34163;49.314;6.752;2023-12-04T14:53:18;98453.31;;;7.84;100.00
48352;BME280;34163;49.314;6.752;2023-12-04T14:56:08;98447.97;;;7.86;100.00
48352;BME280;34163;49.314;6.752;2023-12-04T14:58:42;98446.97;;;7.88;100.00
48352;BME280;34163;49.314;6.752;2023-12-04T15:01:08;98456.56;;;7.38;100.00
48352;BME280;34163;49.314;6.752;2023-12-04T15:03:53;98447.13;;;6.06;100.00
48352;BME280;34163;49.314;6.752;2023-12-04T15:06:25;98449.94;;;5.61;100.00
48352;BME280;34163;49.314;6.752;2023-12-04T15:08:53;98444.16;;;5.33;100.00
48352;BME280;34163;49.314;6.752;2023-12-04T15:11:40;98437.75;;;5.19;100.00
48352;BME280;34163;49.314;6.752;2023-12-04T15:14:24;98431.44;;;5.03;100.00
48352;BME280;34163;49.314;6.752;2023-12-04T15:17:04;98439.63;;;4.95;100.00
48352;BME280;34163;49.314;6.752;2023-12-04T15:19:48;98448.06;;;4.81;100.00
48352;BME280;34163;49.314;6.752;2023-12-04T15:22:33;98434.53;;;4.70;100.00
48352;BME280;34163;49.314;6.752;2023-12-04T15:24:59;98432.88;;;4.67;100.00
48352;BME280;34163;49.314;6.752;2023-12-04T15:27:24;98431.41;;;4.60;100.00
48352;BME280;34163;49.314;6.752;2023-12-04T15:29:49;98437.81;;;4.53;100.00
48352;BME280;34163;49.314;6.752;2023-12-04T15:32:15;98430.88;;;4.52;100.00
48352;BME280;34163;49.314;6.752;2023-12-04T15:34:40;98413.59;;;4.46;100.00
48352;BME280;34163;49.314;6.752;2023-12-04T15:37:06;98413.84;;;4.40;100.00
48352;BME280;34163;49.314;6.752;2023-12-04T15:39:31;98397.78;;;4.70;100.00
48352;BME280;34163;49.314;6.752;2023-12-04T15:41:56;98401.47;;;5.48;100.00
48352;BME280;34163;49.314;6.752;2023-12-04T15:44:21;98401.13;;;5.95;100.00
48352;BME280;34163;49.314;6.752;2023-12-04T15:46:47;98396.94;;;6.29;100.00
48352;BME280;34163;49.314;6.752;2023-12-04T15:49:13;98398.53;;;6.51;100.00
48352;BME280;34163;49.314;6.752;2023-12-04T15:51:40;98392.53;;;6.66;100.00
48352;BME280;34163;49.314;6.752;2023-12-04T15:54:06;98391.94;;;6.79;100.00
48352;BME280;34163;49.314;6.752;2023-12-04T15:56:31;98389.69;;;6.88;100.00
48352;BME280;34163;49.314;6.752;2023-12-04T15:58:57;98386.69;;;6.96;100.00
48352;BME280;34163;49.314;6.752;2023-12-04T16:01:22;98378.47;;;7.02;100.00
48352;BME280;34163;49.314;6.752;2023-12-04T16:03:49;98387.75;;;7.09;100.00
48352;BME280;34163;49.314;6.752;2023-12-04T16:06:15;98377.75;;;7.16;100.00
48352;BME280;34163;49.314;6.752;2023-12-04T16:08:42;98382.78;;;7.21;100.00
48352;BME280;34163;49.314;6.752;2023-12-04T16:11:10;98379.06;;;7.25;100.00
48352;BME280;34163;49.314;6.752;2023-12-04T16:13:37;98381.47;;;7.30;100.00
48352;BME280;34163;49.314;6.752;2023-12-04T16:16:03;98369.81;;;7.34;100.00
48352;BME280;34163;49.314;6.752;2023-12-04T16:18:30;98367.91;;;7.37;100.00
48352;BME280;34163;49.314;6.752;2023-12-04T16:21:00;98365.09;;;7.40;100.00
48352;BME280;34163;49.314;6.752;2023-12-04T16:23:25;98364.00;;;7.44;100.00
48352;BME280;34163;49.314;6.752;2023-12-04T16:25:51;98366.47;;;7.48;100.00
48352;BME280;34163;49.314;6.752;2023-12-04T16:28:17;98367.22;;;7.50;100.00
48352;BME280;34163;49.314;6.752;2023-12-04T16:30:43;98360.97;;;7.52;100.00
48352;BME280;34163;49.314;6.752;2023-12-04T16:33:08;98366.91;;;7.56;100.00
48352;BME280;34163;49.314;6.752;2023-12-04T16:35:33;98357.25;;;7.56;100.00
48352;BME280;34163;49.314;6.752;2023-12-04T16:37:59;98342.09;;;7.60;100.00
48352;BME280;34163;49.314;6.752;2023-12-04T16:40:24;98345.50;;;7.62;100.00
48352;BME280;34163;49.314;6.752;2023-12-04T16:42:49;98348.91;;;7.64;100.00
48352;BME280;34163;49.314;6.752;2023-12-04T16:45:15;98341.78;;;7.66;100.00
48352;BME280;34163;49.314;6.752;2023-12-04T16:47:40;98336.50;;;7.66;100.00
48352;BME280;34163;49.314;6.752;2023-12-04T16:50:05;98336.34;;;7.69;100.00
48352;BME280;34163;49.314;6.752;2023-12-04T16:52:31;98334.47;;;7.71;100.00
48352;BME280;34163;49.314;6.752;2023-12-04T16:54:56;98326.47;;;7.73;100.00
48352;BME280;34163;49.314;6.752;2023-12-04T16:57:25;98326.31;;;7.76;100.00
48352;BME280;34163;49.314;6.752;2023-12-04T16:59:50;98327.91;;;7.78;100.00
48352;BME280;34163;49.314;6.752;2023-12-04T17:02:16;98323.34;;;7.82;100.00
48352;BME280;34163;49.314;6.752;2023-12-04T17:04:41;98313.72;;;7.81;100.00
48352;BME280;34163;49.314;6.752;2023-12-04T17:07:06;98314.47;;;7.83;100.00
48352;BME280;34163;49.314;6.752;2023-12-04T17:09:32;98316.09;;;7.86;100.00
48352;BME280;34163;49.314;6.752;2023-12-04T17:11:58;98310.00;;;7.85;100.00
48352;BME280;34163;49.314;6.752;2023-12-04T17:14:23;98316.69;;;7.75;100.00
48352;BME280;34163;49.314;6.752;2023-12-04T17:16:49;98317.72;;;6.35;100.00
48352;BME280;34163;49.314;6.752;2023-12-04T17:19:14;98323.81;;;5.80;100.00
48352;BME280;34163;49.314;6.752;2023-12-04T17:21:40;98314.00;;;5.46;100.00
48352;BME280;34163;49.314;6.752;2023-12-04T17:27:06;98305.00;;;5.12;100.00
48352;BME280;34163;49.314;6.752;2023-12-04T17:29:31;98302.72;;;5.04;100.00
48352;BME280;34163;49.314;6.752;2023-12-04T17:31:57;98314.47;;;4.96;100.00
48352;BME280;34163;49.314;6.752;2023-12-04T17:34:22;98314.09;;;4.84;100.00
48352;BME280;34163;49.314;6.752;2023-12-04T17:36:53;98318.69;;;4.79;100.00
48352;BME280;34163;49.314;6.752;2023-12-04T17:39:24;98309.28;;;4.73;100.00
48352;BME280;34163;49.314;6.752;2023-12-04T17:41:49;98311.50;;;4.62;100.00
48352;BME280;34163;49.314;6.752;2023-12-04T17:44:14;98307.41;;;4.57;100.00
48352;BME280;34163;49.314;6.752;2023-12-04T17:46:40;98305.69;;;4.55;100.00
48352;BME280;34163;49.314;6.752;2023-12-04T17:49:05;98299.72;;;4.52;100.00
48352;BME280;34163;49.314;6.752;2023-12-04T17:51:36;98293.25;;;4.39;100.00
48352;BME280;34163;49.314;6.752;2023-12-04T17:54:04;98295.03;;;4.38;100.00
48352;BME280;34163;49.314;6.752;2023-12-04T17:56:29;98290.97;;;4.93;100.00
48352;BME280;34163;49.314;6.752;2023-12-04T17:58:55;98282.78;;;5.59;100.00
48352;BME280;34163;49.314;6.752;2023-12-04T18:01:20;98280.91;;;5.99;100.00
48352;BME280;34163;49.314;6.752;2023-12-04T18:03:45;98276.00;;;6.28;100.00
48352;BME280;34163;49.314;6.752;2023-12-04T18:06:11;98278.50;;;6.48;100.00
48352;BME280;34163;49.314;6.752;2023-12-04T18:08:41;98275.94;;;6.64;100.00
48352;BME280;34163;49.314;6.752;2023-12-04T18:11:06;98257.81;;;6.76;100.00
48352;BME280;34163;49.314;6.752;2023-12-04T18:13:31;98268.66;;;6.87;100.00
48352;BME280;34163;49.314;6.752;2023-12-04T18:15:58;98261.19;;;6.95;100.00
48352;BME280;34163;49.314;6.752;2023-12-04T18:18:24;98258.09;;;7.04;100.00
48352;BME280;34163;49.314;6.752;2023-12-04T18:20:49;98248.16;;;7.09;100.00
48352;BME280;34163;49.314;6.752;2023-12-04T18:23:16;98236.53;;;7.14;100.00
48352;BME280;34163;49.314;6.752;2023-12-04T18:25:42;98247.66;;;7.19;100.00
48352;BME280;34163;49.314;6.752;2023-12-04T18:28:07;98238.59;;;7.24;100.00
48352;BME280;34163;49.314;6.752;2023-12-04T18:30:34;98234.00;;;7.28;100.00
48352;BME280;34163;49.314;6.752;2023-12-04T18:33:00;98236.47;;;7.31;100.00
48352;BME280;34163;49.314;6.752;2023-12-04T18:35:25;98231.88;;;7.35;100.00
48352;BME280;34163;49.314;6.752;2023-12-04T18:40:16;98232.41;;;7.41;100.00
48352;BME280;34163;49.314;6.752;2023-12-04T18:42:42;98219.97;;;7.43;100.00
48352;BME280;34163;49.314;6.752;2023-12-04T18:45:07;98219.72;;;7.48;100.00
48352;BME280;34163;49.314;6.752;2023-12-04T18:47:33;98216.09;;;7.51;100.00
48352;BME280;34163;49.314;6.752;2023-12-04T18:50:00;98217.72;;;7.53;100.00
48352;BME280;34163;49.314;6.752;2023-12-04T18:52:26;98223.75;;;7.55;100.00
48352;BME280;34163;49.314;6.752;2023-12-04T18:54:52;98219.13;;;7.59;100.00
48352;BME280;34163;49.314;6.752;2023-12-04T18:57:17;98210.31;;;7.60;100.00
48352;BME280;34163;49.314;6.752;2023-12-04T18:59:42;98208.44;;;7.62;100.00
48352;BME280;34163;49.314;6.752;2023-12-04T19:02:08;98216.25;;;7.63;100.00
48352;BME280;34163;49.314;6.752;2023-12-04T19:04:33;98214.38;;;7.66;100.00
48352;BME280;34163;49.314;6.752;2023-12-04T19:07:02;98202.81;;;7.68;100.00
48352;BME280;34163;49.314;6.752;2023-12-04T19:09:28;98207.84;;;7.73;100.00
48352;BME280;34163;49.314;6.752;2023-12-04T19:11:54;98203.41;;;7.73;100.00
48352;BME280;34163;49.314;6.752;2023-12-04T19:14:20;98192.75;;;7.75;100.00
48352;BME280;34163;49.314;6.752;2023-12-04T19:16:45;98202.31;;;7.77;100.00
48352;BME280;34163;49.314;6.752;2023-12-04T19:19:10;98196.06;;;7.78;100.00
48352;BME280;34163;49.314;6.752;2023-12-04T19:21:38;98199.50;;;7.80;100.00
48352;BME280;34163;49.314;6.752;2023-12-04T19:24:04;98182.72;;;7.81;100.00
48352;BME280;34163;49.314;6.752;2023-12-04T19:26:31;98173.88;;;7.82;100.00
48352;BME280;34163;49.314;6.752;2023-12-04T19:28:57;98172.09;;;7.83;100.00
48352;BME280;34163;49.314;6.752;2023-12-04T19:31:26;98181.63;;;7.86;100.00
48352;BME280;34163;49.314;6.752;2023-12-04T19:33:53;98163.06;;;7.87;100.00
48352;BME280;34163;49.314;6.752;2023-12-04T19:36:19;98167.34;;;6.61;100.00
48352;BME280;34163;49.314;6.752;2023-12-04T19:38:44;98171.13;;;5.85;100.00
48352;BME280;34163;49.314;6.752;2023-12-04T19:41:09;98178.78;;;5.53;100.00
48352;BME280;34163;49.314;6.752;2023-12-04T19:43:36;98178.25;;;5.27;100.00
48352;BME280;34163;49.314;6.752;2023-12-04T19:46:02;98178.69;;;5.18;100.00
48352;BME280;34163;49.314;6.752;2023-12-04T19:48:28;98168.84;;;5.04;100.00
48352;BME280;34163;49.314;6.752;2023-12-04T19:50:53;98170.94;;;4.96;100.00
48352;BME280;34163;49.314;6.752;2023-12-04T19:53:18;98165.41;;;4.83;100.00
48352;BME280;34163;49.314;6.752;2023-12-04T19:55:44;98167.09;;;4.84;100.00
48352;BME280;34163;49.314;6.752;2023-12-04T19:58:09;98163.34;;;4.71;100.00
48352;BME280;34163;49.314;6.752;2023-12-04T20:00:34;98168.88;;;4.65;100.00
48352;BME280;34163;49.314;6.752;2023-12-04T20:03:00;98162.03;;;4.61;100.00
48352;BME280;34163;49.314;6.752;2023-12-04T20:05:25;98159.47;;;4.59;100.00
48352;BME280;34163;49.314;6.752;2023-12-04T20:07:51;98159.16;;;4.46;100.00
48352;BME280;34163;49.314;6.752;2023-12-04T20:10:16;98155.91;;;4.41;100.00
48352;BME280;34163;49.314;6.752;2023-12-04T20:12:41;98151.84;;;4.34;100.00
48352;BME280;34163;49.314;6.752;2023-12-04T20:15:07;98160.63;;;4.53;100.00
48352;BME280;34163;49.314;6.752;2023-12-04T20:17:34;98164.91;;;5.32;100.00
48352;BME280;34163;49.314;6.752;2023-12-04T20:19:59;98164.56;;;5.76;100.00
48352;BME280;34163;49.314;6.752;2023-12-04T20:22:25;98150.66;;;6.09;100.00
48352;BME280;34163;49.314;6.752;2023-12-04T20:24:50;98150.28;;;6.34;100.00
48352;BME280;34163;49.314;6.752;2023-12-04T20:27:15;98142.28;;;6.53;100.00
48352;BME280;34163;49.314;6.752;2023-12-04T20:29:41;98148.50;;;6.68;100.00
48352;BME280;34163;49.314;6.752;2023-12-04T20:32:07;98142.59;;;6.81;100.00
48352;BME280;34163;49.314;6.752;2023-12-04T20:34:33;98138.56;;;6.91;100.00
48352;BME280;34163;49.314;6.752;2023-12-04T20:36:58;98143.47;;;6.97;100.00
48352;BME280;34163;49.314;6.752;2023-12-04T20:39:25;98142.19;;;7.04;100.00